createdAt,value
2018-07-02T00:01:05.045Z,37.30
2018-07-02T00:06:12.626Z,37.40
2018-07-02T00:08:40.791Z,37.50
2018-07-02T00:11:08.953Z,37.60
2018-07-02T00:13:37.110Z,37.60
2018-07-02T00:16:05.267Z,37.70
2018-07-02T00:18:33.416Z,37.80
2018-07-02T00:21:02.126Z,37.90
2018-07-02T00:23:30.286Z,37.80
2018-07-02T00:25:58.433Z,38.00
2018-07-02T00:28:26.607Z,38.10
2018-07-02T00:30:54.756Z,38.10
2018-07-02T00:33:22.898Z,38.70
2018-07-02T00:35:51.060Z,38.20
2018-07-02T00:38:19.200Z,38.40
2018-07-02T00:40:47.381Z,38.60
2018-07-02T00:43:15.528Z,38.70
2018-07-02T00:45:43.686Z,38.70
2018-07-02T00:48:11.836Z,38.80
2018-07-02T00:50:39.996Z,38.80
2018-07-02T00:53:08.140Z,38.80
2018-07-02T00:55:36.323Z,38.90
2018-07-02T00:58:04.475Z,39.00
2018-07-02T01:00:32.630Z,39.00
2018-07-02T01:03:00.781Z,38.90
2018-07-02T01:05:28.941Z,39.00
2018-07-02T01:07:57.082Z,39.10
2018-07-02T01:10:25.251Z,39.00
2018-07-02T01:12:53.404Z,38.90
2018-07-02T01:15:21.585Z,39.00
2018-07-02T01:17:49.734Z,38.90
2018-07-02T01:20:17.941Z,38.90
2018-07-02T01:22:46.089Z,38.90
2018-07-02T01:25:14.232Z,38.90
2018-07-02T01:27:42.378Z,38.90
2018-07-02T01:30:10.542Z,38.90
2018-07-02T01:32:38.680Z,39.00
2018-07-02T01:35:06.850Z,38.90
2018-07-02T01:37:35.013Z,38.90
2018-07-02T01:40:03.255Z,39.00
2018-07-02T01:42:31.436Z,38.90
2018-07-02T01:44:59.581Z,39.00
2018-07-02T01:47:27.760Z,39.10
2018-07-02T01:49:55.904Z,39.20
2018-07-02T01:52:24.085Z,39.40
2018-07-02T01:54:52.238Z,39.40
2018-07-02T01:57:20.405Z,39.40
2018-07-02T01:59:48.587Z,39.60
2018-07-02T02:02:16.740Z,39.60
2018-07-02T02:04:44.888Z,39.70
2018-07-02T02:07:13.053Z,39.80
2018-07-02T02:12:09.144Z,40.20
2018-07-02T02:14:37.294Z,40.30
2018-07-02T02:17:05.685Z,41.20
2018-07-02T02:19:33.832Z,40.60
2018-07-02T02:22:01.990Z,40.80
2018-07-02T02:24:30.149Z,40.70
2018-07-02T02:26:58.382Z,40.90
2018-07-02T02:29:26.536Z,40.90
2018-07-02T02:31:54.697Z,41.10
2018-07-02T02:34:23.027Z,41.30
2018-07-02T02:36:51.186Z,41.40
2018-07-02T02:39:19.349Z,41.60
2018-07-02T02:41:47.513Z,41.50
2018-07-02T02:44:15.805Z,41.70
2018-07-02T02:46:43.973Z,41.60
2018-07-02T02:49:12.134Z,41.60
2018-07-02T02:51:40.278Z,41.70
2018-07-02T02:54:08.429Z,41.70
2018-07-02T02:56:36.598Z,41.90
2018-07-02T02:59:04.806Z,41.90
2018-07-02T03:01:32.980Z,42.00
2018-07-02T03:04:01.135Z,42.10
2018-07-02T03:06:29.321Z,42.10
2018-07-02T03:08:57.525Z,42.10
2018-07-02T03:11:25.665Z,42.20
2018-07-02T03:13:53.824Z,42.30
2018-07-02T03:16:22.076Z,42.60
2018-07-02T03:18:50.234Z,43.30
2018-07-02T03:21:18.402Z,42.60
2018-07-02T03:23:46.570Z,42.90
2018-07-02T03:26:14.720Z,43.00
2018-07-02T03:28:42.882Z,43.10
2018-07-02T03:31:11.025Z,43.20
2018-07-02T03:33:39.198Z,43.40
2018-07-02T03:36:07.353Z,43.60
2018-07-02T03:38:35.519Z,43.70
2018-07-02T03:41:03.677Z,43.80
2018-07-02T03:43:31.828Z,44.00
2018-07-02T03:46:00.293Z,44.10
2018-07-02T03:48:28.507Z,44.20
2018-07-02T03:50:56.663Z,45.00
2018-07-02T03:53:24.866Z,44.40
2018-07-02T03:55:53.050Z,44.50
2018-07-02T03:58:21.204Z,44.50
2018-07-02T04:00:49.355Z,44.50
2018-07-02T04:03:17.748Z,44.70
2018-07-02T04:05:45.895Z,44.70
2018-07-02T04:08:14.033Z,44.90
2018-07-02T04:10:42.206Z,45.00
2018-07-02T04:13:10.398Z,45.10
2018-07-02T04:15:38.602Z,45.10
2018-07-02T04:18:06.757Z,45.30
2018-07-02T04:20:34.905Z,45.40
2018-07-02T04:23:03.079Z,45.50
2018-07-02T04:25:31.234Z,45.60
2018-07-02T04:27:59.438Z,45.60
2018-07-02T04:30:27.611Z,45.70
2018-07-02T04:32:55.758Z,45.80
2018-07-02T04:35:23.913Z,45.90
2018-07-02T04:37:52.045Z,46.00
2018-07-02T04:40:20.219Z,45.90
2018-07-02T04:42:48.349Z,45.90
2018-07-02T04:45:16.577Z,45.80
2018-07-02T04:47:46.767Z,45.80
2018-07-02T04:50:12.936Z,45.80
2018-07-02T04:52:41.128Z,45.50
2018-07-02T04:55:09.322Z,45.70
2018-07-02T04:57:37.494Z,45.70
2018-07-02T05:00:05.906Z,45.50
2018-07-02T05:02:34.141Z,45.40
2018-07-02T05:05:02.318Z,45.40
2018-07-02T05:07:30.505Z,45.30
2018-07-02T05:09:58.677Z,45.40
2018-07-02T05:12:26.846Z,45.70
2018-07-02T05:14:55.073Z,45.60
2018-07-02T05:17:23.252Z,45.50
2018-07-02T05:19:51.430Z,45.40
2018-07-02T05:22:19.594Z,45.40
2018-07-02T05:24:47.761Z,45.50
2018-07-02T05:27:15.965Z,45.50
2018-07-02T05:29:44.138Z,45.40
2018-07-02T05:32:12.304Z,45.40
2018-07-02T05:34:40.448Z,45.40
2018-07-02T05:37:08.629Z,45.40
2018-07-02T05:39:36.803Z,45.20
2018-07-02T05:42:04.967Z,45.00
2018-07-02T05:44:33.154Z,45.00
2018-07-02T05:47:01.366Z,44.70
2018-07-02T05:49:29.498Z,44.50
2018-07-02T05:51:57.670Z,44.50
2018-07-02T05:56:53.754Z,44.60
2018-07-02T05:59:21.956Z,44.60
2018-07-02T06:01:50.137Z,44.90
2018-07-02T06:04:18.296Z,44.50
2018-07-02T06:06:46.473Z,44.10
2018-07-02T06:09:14.617Z,43.90
2018-07-02T06:11:42.773Z,43.80
2018-07-02T06:14:11.702Z,43.80
2018-07-02T06:16:39.961Z,43.80
2018-07-02T06:19:08.426Z,43.70
2018-07-02T06:21:36.581Z,43.60
2018-07-02T06:24:04.831Z,43.70
2018-07-02T06:26:32.966Z,43.80
2018-07-02T06:29:01.113Z,43.60
2018-07-02T06:31:29.318Z,43.70
2018-07-02T06:33:57.476Z,43.50
2018-07-02T06:36:25.642Z,43.30
2018-07-02T06:38:53.789Z,43.50
2018-07-02T06:41:21.949Z,43.40
2018-07-02T06:43:50.102Z,43.40
2018-07-02T06:46:18.249Z,43.70
2018-07-02T06:48:46.413Z,44.70
2018-07-02T06:51:14.553Z,44.70
2018-07-02T06:53:42.706Z,44.60
2018-07-02T06:56:10.854Z,44.40
2018-07-02T06:58:39.142Z,44.30
2018-07-02T07:03:35.169Z,44.10
2018-07-02T07:06:03.311Z,44.10
2018-07-02T07:08:31.586Z,43.60
2018-07-02T07:10:59.635Z,43.30
2018-07-02T07:13:27.796Z,43.80
2018-07-02T07:15:55.946Z,43.50
2018-07-02T07:18:24.113Z,43.80
2018-07-02T07:20:52.358Z,43.60
2018-07-02T07:23:20.509Z,43.50
2018-07-02T07:25:48.689Z,42.80
2018-07-02T07:28:16.802Z,42.00
2018-07-02T07:30:45.069Z,41.50
2018-07-02T07:33:13.242Z,41.20
2018-07-02T07:35:41.409Z,41.20
2018-07-02T07:38:09.576Z,41.50
2018-07-02T07:40:37.742Z,42.30
2018-07-02T07:43:05.897Z,42.70
2018-07-02T07:45:34.081Z,42.90
2018-07-02T07:48:02.261Z,43.10
2018-07-02T07:50:30.426Z,42.50
2018-07-02T07:52:58.590Z,41.70
2018-07-02T07:55:26.765Z,41.40
2018-07-02T07:57:54.934Z,41.60
2018-07-02T08:00:23.080Z,41.60
2018-07-02T08:02:51.248Z,41.10
2018-07-02T08:05:19.494Z,41.20
2018-07-02T08:07:47.663Z,41.00
2018-07-02T08:10:15.824Z,40.70
2018-07-02T08:12:44.202Z,40.30
2018-07-02T08:15:12.365Z,40.50
2018-07-02T08:17:40.549Z,40.10
2018-07-02T08:20:08.749Z,39.70
2018-07-02T08:22:36.981Z,39.40
2018-07-02T08:27:33.065Z,38.80
2018-07-02T08:30:01.239Z,38.80
2018-07-02T08:32:29.400Z,38.10
2018-07-02T08:34:57.571Z,37.50
2018-07-02T08:37:25.818Z,37.30
2018-07-02T08:39:54.001Z,37.40
2018-07-02T08:42:22.221Z,37.40
2018-07-02T08:44:51.007Z,37.60
2018-07-02T08:47:19.281Z,37.60
2018-07-02T08:49:48.002Z,37.00
2018-07-02T08:52:16.237Z,36.50
2018-07-02T08:54:44.557Z,36.40
2018-07-02T08:57:12.720Z,36.40
2018-07-02T08:59:40.900Z,36.30
2018-07-02T09:02:09.083Z,36.10
2018-07-02T09:04:37.362Z,36.80
2018-07-02T09:07:05.585Z,37.00
2018-07-02T09:09:33.759Z,36.60
2018-07-02T09:12:01.941Z,36.50
2018-07-02T09:14:30.116Z,36.30
2018-07-02T09:16:58.345Z,36.20
2018-07-02T09:19:26.513Z,36.50
2018-07-02T09:21:54.697Z,36.60
2018-07-02T09:24:22.870Z,36.50
2018-07-02T09:26:51.206Z,36.40
2018-07-02T09:29:19.233Z,36.40
2018-07-02T09:31:47.388Z,36.50
2018-07-02T09:34:15.546Z,36.30
2018-07-02T09:36:44.775Z,35.60
2018-07-02T09:39:13.591Z,35.40
2018-07-02T09:41:41.741Z,36.00
2018-07-02T09:44:09.925Z,34.80
2018-07-02T09:46:38.465Z,34.80
2018-07-02T09:49:06.637Z,34.90
2018-07-02T09:51:34.906Z,35.20
2018-07-02T09:54:03.146Z,35.80
2018-07-02T09:56:32.034Z,35.40
2018-07-02T09:59:00.197Z,34.90
2018-07-02T10:01:28.359Z,34.70
2018-07-02T10:03:56.533Z,34.70
2018-07-02T10:06:24.792Z,34.50
2018-07-02T10:08:52.910Z,34.10
2018-07-02T10:11:21.101Z,33.90
2018-07-02T10:13:49.290Z,34.00
2018-07-02T10:16:17.472Z,33.90
2018-07-02T10:21:13.625Z,34.30
2018-07-02T10:23:41.859Z,34.10
2018-07-02T10:26:09.954Z,34.10
2018-07-02T10:28:38.122Z,34.30
2018-07-02T10:31:06.567Z,35.10
2018-07-02T10:33:34.733Z,33.80
2018-07-02T10:36:02.894Z,34.00
2018-07-02T10:38:31.079Z,33.60
2018-07-02T10:40:59.249Z,33.40
2018-07-02T10:43:27.416Z,33.30
2018-07-02T10:45:55.557Z,33.20
2018-07-02T10:48:23.722Z,32.40
2018-07-02T10:50:51.889Z,32.30
2018-07-02T10:53:20.058Z,32.50
2018-07-02T10:55:48.235Z,32.30
2018-07-02T10:58:16.418Z,32.60
2018-07-02T11:00:44.642Z,33.00
2018-07-02T11:03:12.807Z,32.90
2018-07-02T11:05:40.988Z,33.00
2018-07-02T11:08:09.177Z,33.60
2018-07-02T11:10:41.006Z,33.00
2018-07-02T11:13:10.796Z,31.80
2018-07-02T11:15:39.769Z,31.60
2018-07-02T11:18:08.278Z,31.90
2018-07-02T11:20:37.042Z,31.80
2018-07-02T11:23:05.197Z,31.30
2018-07-02T11:25:33.530Z,32.30
2018-07-02T11:28:02.497Z,33.60
2018-07-02T11:30:30.725Z,34.00
2018-07-02T11:32:58.873Z,33.60
2018-07-02T11:35:27.028Z,34.60
2018-07-02T11:37:55.257Z,33.60
2018-07-02T11:40:23.432Z,33.60
2018-07-02T11:42:51.633Z,32.80
2018-07-02T11:45:19.803Z,32.70
2018-07-02T11:47:48.186Z,32.90
2018-07-02T11:50:16.352Z,32.70
2018-07-02T11:52:44.814Z,32.70
2018-07-02T11:55:13.033Z,32.10
2018-07-02T11:57:41.198Z,31.90
2018-07-02T12:00:09.936Z,31.90
2018-07-02T12:02:38.302Z,31.90
2018-07-02T12:05:06.489Z,32.00
2018-07-02T12:07:34.639Z,32.30
2018-07-02T12:10:03.413Z,32.20
2018-07-02T12:12:32.215Z,32.10
2018-07-02T12:15:00.406Z,31.80
2018-07-02T12:17:28.842Z,32.30
2018-07-02T12:19:57.069Z,31.40
2018-07-02T12:22:25.223Z,31.70
2018-07-02T12:24:53.541Z,31.90
2018-07-02T12:27:21.721Z,31.30
2018-07-02T12:29:49.884Z,31.40
2018-07-02T12:32:18.025Z,31.50
2018-07-02T12:34:46.225Z,31.60
2018-07-02T12:37:14.377Z,31.40
2018-07-02T12:39:42.545Z,31.60
2018-07-02T12:42:10.790Z,31.90
2018-07-02T12:44:38.937Z,32.00
2018-07-02T12:47:07.090Z,31.60
2018-07-02T12:49:35.244Z,31.70
2018-07-02T12:52:03.405Z,32.90
2018-07-02T12:54:31.590Z,33.10
2018-07-02T12:56:59.745Z,33.40
2018-07-02T12:59:27.889Z,33.50
2018-07-02T13:01:56.057Z,33.30
2018-07-02T13:04:24.207Z,32.90
2018-07-02T13:06:52.386Z,32.90
2018-07-02T13:09:20.552Z,32.40
2018-07-02T13:11:48.725Z,32.20
2018-07-02T13:14:16.922Z,32.30
2018-07-02T13:16:45.076Z,32.00
2018-07-02T13:19:13.233Z,32.30
2018-07-02T13:21:41.458Z,31.40
2018-07-02T13:24:09.621Z,31.00
2018-07-02T13:26:37.782Z,31.10
2018-07-02T13:29:05.955Z,31.50
2018-07-02T13:31:34.120Z,31.10
2018-07-02T13:34:02.277Z,31.10
2018-07-02T13:36:30.506Z,31.00
2018-07-02T13:38:58.662Z,31.40
2018-07-02T13:41:26.882Z,31.40
2018-07-02T13:43:55.064Z,30.90
2018-07-02T13:46:23.262Z,30.50
2018-07-02T13:48:51.566Z,30.00
2018-07-02T13:51:20.527Z,30.00
2018-07-02T13:53:48.767Z,29.70
2018-07-02T13:56:16.929Z,30.00
2018-07-02T13:58:45.082Z,30.50
2018-07-02T14:01:13.241Z,30.90
2018-07-02T14:03:41.394Z,31.50
2018-07-02T14:06:09.555Z,31.70
2018-07-02T14:08:37.717Z,32.10
2018-07-02T14:11:05.914Z,32.50
2018-07-02T14:13:34.078Z,32.90
2018-07-02T14:16:02.227Z,32.60
2018-07-02T14:18:30.380Z,32.50
2018-07-02T14:20:58.941Z,32.30
2018-07-02T14:23:27.108Z,32.30
2018-07-02T14:25:55.285Z,32.20
2018-07-02T14:28:23.542Z,32.10
2018-07-02T14:30:51.857Z,31.70
2018-07-02T14:33:20.030Z,31.70
2018-07-02T14:35:48.221Z,31.80
2018-07-02T14:38:16.405Z,32.10
2018-07-02T14:40:44.566Z,32.20
2018-07-02T14:43:12.742Z,32.20
2018-07-02T14:45:40.929Z,32.10
2018-07-02T14:48:09.117Z,32.00
2018-07-02T14:50:37.296Z,31.60
2018-07-02T14:53:05.453Z,31.30
2018-07-02T14:55:33.602Z,31.10
2018-07-02T14:58:01.766Z,31.30
2018-07-02T15:00:29.926Z,31.00
2018-07-02T15:02:58.112Z,31.10
2018-07-02T15:05:26.310Z,31.40
2018-07-02T15:07:54.438Z,31.20
2018-07-02T15:10:22.597Z,30.80
2018-07-02T15:12:50.761Z,31.10
2018-07-02T15:15:18.945Z,31.00
2018-07-02T15:17:47.114Z,30.90
2018-07-02T15:20:15.299Z,30.70
2018-07-02T15:22:43.454Z,31.00
2018-07-02T15:25:11.628Z,31.00
2018-07-02T15:27:39.785Z,30.90
2018-07-02T15:30:07.962Z,30.90
2018-07-02T15:32:36.122Z,30.80
2018-07-02T15:35:04.323Z,30.50
2018-07-02T15:37:32.476Z,30.30
2018-07-02T15:40:00.753Z,30.10
2018-07-02T15:42:28.939Z,30.00
2018-07-02T15:44:57.134Z,29.90
2018-07-02T15:47:25.302Z,30.00
2018-07-02T15:49:53.477Z,30.40
2018-07-02T15:52:21.625Z,29.50
2018-07-02T15:54:49.946Z,29.50
2018-07-02T15:57:18.218Z,29.50
2018-07-02T15:59:47.439Z,29.60
2018-07-02T16:02:15.743Z,29.50
2018-07-02T16:04:43.948Z,29.40
2018-07-02T16:07:12.170Z,29.30
2018-07-02T16:09:40.403Z,29.20
2018-07-02T16:12:08.646Z,29.10
2018-07-02T16:14:36.841Z,29.30
2018-07-02T16:17:05.057Z,29.50
2018-07-02T16:19:33.304Z,29.90
2018-07-02T16:22:01.542Z,30.20
2018-07-02T16:24:29.720Z,30.00
2018-07-02T16:26:58.051Z,29.90
2018-07-02T16:29:26.235Z,29.60
2018-07-02T16:31:54.402Z,29.80
2018-07-02T16:34:22.582Z,29.90
2018-07-02T16:36:50.827Z,29.30
2018-07-02T16:39:18.987Z,29.10
2018-07-02T16:41:47.141Z,28.90
2018-07-02T16:44:15.408Z,28.90
2018-07-02T16:46:43.643Z,29.70
2018-07-02T16:49:11.785Z,30.20
2018-07-02T16:51:39.967Z,30.40
2018-07-02T16:54:08.193Z,30.50
2018-07-02T16:56:36.536Z,30.10
2018-07-02T16:59:05.317Z,29.80
2018-07-02T17:01:33.555Z,29.40
2018-07-02T17:04:01.771Z,29.30
2018-07-02T17:06:30.026Z,29.40
2018-07-02T17:08:58.501Z,28.50
2018-07-02T17:11:26.700Z,28.20
2018-07-02T17:13:54.936Z,28.00
2018-07-02T17:16:23.391Z,28.00
2018-07-02T17:18:51.652Z,27.90
2018-07-02T17:21:19.942Z,27.80
2018-07-02T17:23:48.178Z,27.80
2018-07-02T17:26:16.419Z,28.40
2018-07-02T17:28:44.628Z,27.70
2018-07-02T17:31:12.894Z,27.20
2018-07-02T17:33:41.178Z,27.10
2018-07-02T17:36:09.350Z,26.90
2018-07-02T17:38:37.542Z,27.00
2018-07-02T17:41:05.745Z,27.10
2018-07-02T17:43:33.909Z,27.00
2018-07-02T17:46:02.202Z,27.10
2018-07-02T17:48:30.397Z,27.00
2018-07-02T17:50:58.559Z,26.80
2018-07-02T17:53:26.742Z,26.70
2018-07-02T17:55:54.931Z,26.60
2018-07-02T17:58:23.108Z,26.90
2018-07-02T18:00:51.266Z,27.10
2018-07-02T18:03:19.432Z,27.20
2018-07-02T18:05:47.677Z,27.10
2018-07-02T18:08:15.841Z,27.10
2018-07-02T18:10:44.042Z,27.20
2018-07-02T18:13:12.176Z,27.40
2018-07-02T18:15:42.518Z,27.60
2018-07-02T18:18:10.694Z,28.40
2018-07-02T18:20:38.927Z,27.60
2018-07-02T18:23:07.289Z,27.50
2018-07-02T18:25:35.447Z,27.00
2018-07-02T18:28:03.664Z,27.50
2018-07-02T18:30:31.941Z,27.60
2018-07-02T18:33:00.106Z,27.50
2018-07-02T18:35:28.301Z,27.60
2018-07-02T18:37:56.526Z,27.50
2018-07-02T18:40:24.626Z,27.40
2018-07-02T18:42:52.825Z,27.60
2018-07-02T18:45:20.954Z,27.60
2018-07-02T18:47:49.117Z,27.80
2018-07-02T18:50:17.321Z,28.00
2018-07-02T18:52:45.569Z,28.10
2018-07-02T18:55:13.737Z,28.40
2018-07-02T18:57:41.905Z,28.40
2018-07-02T19:00:10.083Z,28.50
2018-07-02T19:02:38.262Z,28.60
2018-07-02T19:05:06.506Z,28.70
2018-07-02T19:07:34.668Z,28.80
2018-07-02T19:10:02.921Z,29.10
2018-07-02T19:12:31.083Z,29.20
2018-07-02T19:14:59.449Z,29.10
2018-07-02T19:17:27.642Z,29.10
2018-07-02T19:19:55.821Z,29.30
2018-07-02T19:22:24.136Z,29.30
2018-07-02T19:24:52.318Z,29.30
2018-07-02T19:27:20.481Z,29.20
2018-07-02T19:29:48.682Z,29.30
2018-07-02T19:32:16.817Z,29.30
2018-07-02T19:34:44.998Z,29.30
2018-07-02T19:37:13.149Z,29.30
2018-07-02T19:39:41.321Z,29.40
2018-07-02T19:42:09.478Z,29.40
2018-07-02T19:44:37.670Z,29.50
2018-07-02T19:47:06.060Z,29.50
2018-07-02T19:49:34.242Z,29.60
2018-07-02T19:52:02.381Z,29.70
2018-07-02T19:54:30.573Z,29.60
2018-07-02T19:56:58.737Z,29.70
2018-07-02T19:59:26.964Z,29.70
2018-07-02T20:01:55.126Z,29.90
2018-07-02T20:04:23.270Z,30.10
2018-07-02T20:06:51.537Z,30.50
2018-07-02T20:09:19.603Z,30.70
2018-07-02T20:11:47.822Z,30.80
2018-07-02T20:14:15.968Z,30.70
2018-07-02T20:16:44.535Z,30.90
2018-07-02T20:19:12.721Z,31.00
2018-07-02T20:21:40.872Z,31.00
2018-07-02T20:24:09.043Z,31.10
2018-07-02T20:26:37.221Z,31.20
2018-07-02T20:29:05.368Z,31.20
2018-07-02T20:31:33.595Z,31.30
2018-07-02T20:34:01.743Z,31.50
2018-07-02T20:36:29.933Z,31.70
2018-07-02T20:38:58.181Z,31.80
2018-07-02T20:41:26.380Z,32.00
2018-07-02T20:43:54.553Z,32.10
2018-07-02T20:46:22.709Z,32.40
2018-07-02T20:48:50.892Z,32.50
2018-07-02T20:51:19.242Z,32.70
2018-07-02T20:53:47.412Z,32.90
2018-07-02T20:56:15.592Z,33.00
2018-07-02T20:58:43.725Z,33.20
2018-07-02T21:01:11.883Z,33.50
2018-07-02T21:03:40.038Z,33.50
2018-07-02T21:06:08.223Z,33.80
2018-07-02T21:08:36.398Z,33.80
2018-07-02T21:11:04.554Z,34.00
2018-07-02T21:13:32.724Z,34.10
2018-07-02T21:16:00.937Z,34.40
2018-07-02T21:18:29.040Z,34.90
2018-07-02T21:20:57.186Z,35.10
2018-07-02T21:23:25.345Z,35.40
2018-07-02T21:25:53.504Z,35.50
2018-07-02T21:28:21.701Z,35.40
2018-07-02T21:30:49.847Z,35.60
2018-07-02T21:33:18.061Z,35.90
2018-07-02T21:38:14.129Z,36.30
2018-07-02T21:40:42.295Z,36.70
2018-07-02T21:43:10.463Z,37.20
2018-07-02T21:45:38.610Z,37.50
2018-07-02T21:48:06.758Z,37.80
2018-07-02T21:50:34.909Z,38.10
2018-07-02T21:53:03.063Z,38.50
2018-07-02T21:55:31.203Z,38.80
2018-07-02T21:57:59.377Z,39.00
2018-07-02T22:00:27.531Z,39.40
2018-07-02T22:02:55.685Z,39.60
2018-07-02T22:05:23.966Z,39.70
2018-07-02T22:07:52.065Z,39.90
2018-07-02T22:10:20.212Z,40.20
2018-07-02T22:12:48.375Z,40.40
2018-07-02T22:15:16.555Z,40.70
2018-07-02T22:17:44.781Z,40.80
2018-07-02T22:20:12.948Z,41.10
2018-07-02T22:22:41.101Z,41.20
2018-07-02T22:25:09.270Z,41.40
2018-07-02T22:27:37.414Z,41.60
2018-07-02T22:30:05.595Z,42.50
2018-07-02T22:32:33.772Z,42.00
2018-07-02T22:35:01.946Z,42.30
2018-07-02T22:37:30.098Z,42.50
2018-07-02T22:39:58.261Z,42.70
2018-07-02T22:42:26.530Z,43.00
2018-07-02T22:44:54.698Z,43.10
2018-07-02T22:47:22.876Z,43.30
2018-07-02T22:49:51.043Z,43.50
2018-07-02T22:52:19.191Z,43.70
2018-07-02T22:54:47.416Z,43.90
2018-07-02T22:57:15.799Z,44.10
2018-07-02T22:59:43.966Z,44.30
2018-07-02T23:02:12.137Z,44.30
2018-07-02T23:04:40.281Z,44.50
2018-07-02T23:07:08.462Z,44.60
2018-07-02T23:09:36.632Z,45.40
2018-07-02T23:12:04.985Z,44.90
2018-07-02T23:14:33.150Z,45.00
2018-07-02T23:17:01.329Z,45.20
2018-07-02T23:19:29.487Z,45.30
2018-07-02T23:21:57.657Z,45.40
2018-07-02T23:24:25.810Z,45.60
2018-07-02T23:26:54.073Z,45.60
2018-07-02T23:29:22.253Z,45.90
2018-07-02T23:31:50.439Z,46.00
2018-07-02T23:34:18.597Z,46.00
2018-07-02T23:36:46.843Z,46.30
2018-07-02T23:39:14.989Z,46.40
2018-07-02T23:41:44.211Z,46.70
2018-07-02T23:44:12.359Z,47.30
2018-07-02T23:46:40.522Z,46.70
2018-07-02T23:49:08.683Z,46.70
2018-07-02T23:51:36.909Z,46.80
2018-07-02T23:54:05.181Z,47.00
2018-07-02T23:56:33.479Z,47.10
2018-07-02T23:59:01.617Z,47.20
